Time;durP1;ratioP1;P1;durP2;ratioP2;P2;SDS_P1;SDS_P2;PMS_P1;PMS_P2;Temp;Humidity;BMP_temperature;BMP_pressure;BME280_temperature;BME280_humidity;BME280_pressure;Samples;Min_cycle;Max_cycle;Signal;HPM_P1;HPM_P2
2022/07/10 00:00:21;;;;;;;;;;;20.10;85.90;;;;;;5055651;28;19928;-76
2022/07/10 00:02:47;;;;;;;;;;;20.00;85.90;;;;;;5034138;28;20007;-74
2022/07/10 00:05:16;;;;;;;;;;;20.00;85.90;;;;;;5053739;28;19939;-73
2022/07/10 00:07:43;;;;;;;;;;;20.00;86.00;;;;;;5060145;28;19929;-74
2022/07/10 00:10:10;;;;;;;;;;;20.00;86.00;;;;;;5060263;28;19925;-74
2022/07/10 00:12:37;;;;;;;;;;;19.90;85.90;;;;;;5056649;28;20448;-74
2022/07/10 00:15:04;;;;;;;;;;;19.90;85.90;;;;;;5062258;28;19932;-74
2022/07/10 00:17:31;;;;;;;;;;;19.90;86.00;;;;;;5061346;28;19977;-73
2022/07/10 00:19:58;;;;;;;;;;;19.90;86.10;;;;;;5061500;28;19924;-73
2022/07/10 00:22:26;;;;;;;;;;;19.90;86.10;;;;;;5051326;28;19928;-74
2022/07/10 00:24:53;;;;;;;;;;;19.90;86.10;;;;;;5052294;28;20037;-74
2022/07/10 00:27:20;;;;;;;;;;;19.90;86.20;;;;;;5036700;28;19942;-73
2022/07/10 00:29:47;;;;;;;;;;;19.80;86.10;;;;;;5051185;28;20786;-73
2022/07/10 00:32:14;;;;;;;;;;;19.80;86.10;;;;;;5055354;28;20438;-74
2022/07/10 00:34:41;;;;;;;;;;;19.80;86.10;;;;;;5053085;28;19966;-72
2022/07/10 00:37:08;;;;;;;;;;;19.70;86.10;;;;;;5051032;28;19925;-74
2022/07/10 00:39:36;;;;;;;;;;;19.70;86.10;;;;;;5053245;28;19940;-73
2022/07/10 00:42:09;;;;;;;;;;;19.70;86.10;;;;;;5052887;28;20349;-74
2022/07/10 00:44:36;;;;;;;;;;;19.70;86.10;;;;;;5047969;28;20006;-74
2022/07/10 00:47:04;;;;;;;;;;;19.70;86.20;;;;;;5050283;28;19963;-73
2022/07/10 00:49:31;;;;;;;;;;;19.60;86.20;;;;;;5034299;28;19955;-73
2022/07/10 00:51:58;;;;;;;;;;;19.60;86.20;;;;;;5030533;28;20437;-74
2022/07/10 00:54:26;;;;;;;;;;;19.60;86.10;;;;;;5040146;28;19928;-73
2022/07/10 00:56:54;;;;;;;;;;;19.60;86.20;;;;;;5064237;28;19929;-74
2022/07/10 00:59:22;;;;;;;;;;;19.60;86.30;;;;;;5058115;28;19924;-73
2022/07/10 01:01:50;;;;;;;;;;;19.60;86.30;;;;;;5039727;28;20391;-77
2022/07/10 01:04:17;;;;;;;;;;;19.50;86.30;;;;;;5040375;28;19936;-77
2022/07/10 01:06:44;;;;;;;;;;;19.50;86.30;;;;;;5027760;28;19933;-76
2022/07/10 01:09:11;;;;;;;;;;;19.50;86.20;;;;;;5060620;28;19925;-75
2022/07/10 01:11:38;;;;;;;;;;;19.50;86.20;;;;;;5037786;28;19933;-76
2022/07/10 01:14:06;;;;;;;;;;;19.50;86.10;;;;;;5034289;28;20358;-78
2022/07/10 01:16:33;;;;;;;;;;;19.50;86.30;;;;;;5032854;28;19929;-77
2022/07/10 01:19:00;;;;;;;;;;;19.40;86.30;;;;;;5038555;28;19936;-78
2022/07/10 01:21:29;;;;;;;;;;;19.40;86.30;;;;;;5031379;28;19932;-76
2022/07/10 01:23:57;;;;;;;;;;;19.40;86.30;;;;;;5038799;28;20417;-79
2022/07/10 01:26:24;;;;;;;;;;;19.40;86.30;;;;;;5040321;28;20010;-77
2022/07/10 01:28:52;;;;;;;;;;;19.30;86.20;;;;;;5039941;28;19937;-77
2022/07/10 01:31:19;;;;;;;;;;;19.30;86.20;;;;;;5039412;28;19940;-76
2022/07/10 01:33:47;;;;;;;;;;;19.30;86.40;;;;;;5051931;28;19924;-76
2022/07/10 01:36:14;;;;;;;;;;;19.30;86.40;;;;;;5057949;28;19928;-77
2022/07/10 01:38:42;;;;;;;;;;;19.20;86.30;;;;;;5055604;28;20516;-76
2022/07/10 01:41:10;;;;;;;;;;;19.20;86.30;;;;;;5058952;28;19931;-76
2022/07/10 01:43:37;;;;;;;;;;;19.30;86.50;;;;;;5053898;28;19928;-76
2022/07/10 01:46:04;;;;;;;;;;;19.20;86.40;;;;;;5054117;28;19928;-75
2022/07/10 01:48:31;;;;;;;;;;;19.20;86.40;;;;;;5037759;28;19932;-77
2022/07/10 01:50:58;;;;;;;;;;;19.20;86.40;;;;;;5057170;28;19940;-75
2022/07/10 01:53:25;;;;;;;;;;;19.10;86.30;;;;;;5042919;28;19924;-78
2022/07/10 01:55:53;;;;;;;;;;;19.10;86.20;;;;;;5058178;28;19924;-76
2022/07/10 01:58:20;;;;;;;;;;;19.10;86.30;;;;;;5058515;28;20291;-77
2022/07/10 02:00:47;;;;;;;;;;;19.10;86.30;;;;;;5038956;28;20420;-76
2022/07/10 02:05:59;;;;;;;;;;;19.00;86.20;;;;;;5056273;28;19924;-75
2022/07/10 02:08:26;;;;;;;;;;;19.00;86.20;;;;;;5060213;28;19929;-76
2022/07/10 02:10:54;;;;;;;;;;;19.00;86.20;;;;;;5037679;28;19924;-76
2022/07/10 02:13:21;;;;;;;;;;;19.00;86.20;;;;;;5056601;28;19968;-76
2022/07/10 02:15:48;;;;;;;;;;;18.90;86.20;;;;;;5056760;28;21479;-77
2022/07/10 02:18:15;;;;;;;;;;;18.90;86.10;;;;;;5052354;28;19925;-77
2022/07/10 02:20:42;;;;;;;;;;;18.90;86.20;;;;;;5054675;28;20295;-77
2022/07/10 02:23:09;;;;;;;;;;;18.90;86.20;;;;;;5045420;28;19962;-77
2022/07/10 02:25:36;;;;;;;;;;;18.90;86.20;;;;;;5057967;28;19929;-76
2022/07/10 02:28:05;;;;;;;;;;;18.90;86.20;;;;;;5057014;28;19933;-75
2022/07/10 02:30:32;;;;;;;;;;;18.80;86.10;;;;;;5056000;28;19928;-76
2022/07/10 02:32:58;;;;;;;;;;;18.80;86.10;;;;;;5053504;28;19937;-77
2022/07/10 02:35:25;;;;;;;;;;;18.80;86.20;;;;;;5055215;28;19935;-76
2022/07/10 02:37:52;;;;;;;;;;;18.80;86.10;;;;;;5054098;28;19928;-76
2022/07/10 02:40:19;;;;;;;;;;;18.70;86.00;;;;;;5053748;28;19924;-75
2022/07/10 02:42:46;;;;;;;;;;;18.70;86.00;;;;;;5054439;28;19932;-77
2022/07/10 02:45:14;;;;;;;;;;;18.70;86.10;;;;;;5055016;28;20391;-75
2022/07/10 02:47:41;;;;;;;;;;;18.70;86.20;;;;;;5056211;28;19970;-77
2022/07/10 02:50:09;;;;;;;;;;;18.70;86.30;;;;;;5059337;28;20454;-76
2022/07/10 02:52:36;;;;;;;;;;;18.60;86.20;;;;;;5038729;28;19928;-75
2022/07/10 02:55:04;;;;;;;;;;;18.60;86.20;;;;;;5056954;28;20398;-77
2022/07/10 02:57:31;;;;;;;;;;;18.60;86.30;;;;;;5036643;28;20346;-76
2022/07/10 02:59:58;;;;;;;;;;;18.60;86.90;;;;;;5057174;28;19933;-74
2022/07/10 03:02:26;;;;;;;;;;;18.60;86.30;;;;;;5035066;28;20357;-73
2022/07/10 03:04:53;;;;;;;;;;;18.50;86.20;;;;;;5057604;28;19924;-74
2022/07/10 03:07:20;;;;;;;;;;;18.50;86.30;;;;;;5039800;28;19992;-73
2022/07/10 03:09:47;;;;;;;;;;;18.50;86.30;;;;;;5045702;28;19951;-73
2022/07/10 03:12:14;;;;;;;;;;;18.40;86.30;;;;;;5051571;28;19925;-74
2022/07/10 03:14:41;;;;;;;;;;;18.50;86.30;;;;;;5036917;28;19978;-74
2022/07/10 03:17:08;;;;;;;;;;;18.40;86.30;;;;;;5053385;28;19925;-74
2022/07/10 03:19:36;;;;;;;;;;;18.40;86.20;;;;;;5053922;28;19924;-74
2022/07/10 03:22:03;;;;;;;;;;;18.40;86.30;;;;;;5051386;28;19967;-73
2022/07/10 03:24:30;;;;;;;;;;;18.40;86.50;;;;;;5050766;28;19964;-73
2022/07/10 03:26:57;;;;;;;;;;;18.30;86.30;;;;;;5037168;28;19933;-74
2022/07/10 03:29:23;;;;;;;;;;;18.30;86.10;;;;;;5057898;28;19936;-73
2022/07/10 03:31:50;;;;;;;;;;;18.30;86.20;;;;;;5056272;28;20436;-77
2022/07/10 03:34:17;;;;;;;;;;;18.30;86.30;;;;;;5056286;28;20399;-77
2022/07/10 03:36:46;;;;;;;;;;;18.20;86.30;;;;;;5056626;28;19931;-76
2022/07/10 03:39:13;;;;;;;;;;;18.20;86.20;;;;;;5052172;28;19936;-76
2022/07/10 03:41:39;;;;;;;;;;;18.20;86.20;;;;;;5058151;28;19929;-77
2022/07/10 03:44:06;;;;;;;;;;;18.20;86.30;;;;;;5033574;28;19932;-77
2022/07/10 03:46:33;;;;;;;;;;;18.20;86.20;;;;;;5054440;28;19974;-78
2022/07/10 03:49:00;;;;;;;;;;;18.10;86.20;;;;;;5060140;28;19932;-76
2022/07/10 03:51:27;;;;;;;;;;;18.10;86.10;;;;;;5053628;28;19932;-76
2022/07/10 03:53:55;;;;;;;;;;;18.10;86.20;;;;;;5058613;28;20027;-76
2022/07/10 03:59:06;;;;;;;;;;;18.00;86.00;;;;;;5037949;28;19928;-77
2022/07/10 04:01:33;;;;;;;;;;;18.00;86.10;;;;;;5035176;28;20059;-76
2022/07/10 04:04:00;;;;;;;;;;;18.00;86.30;;;;;;5037486;28;19971;-77
2022/07/10 04:06:27;;;;;;;;;;;18.00;86.20;;;;;;5057282;28;19932;-76
2022/07/10 04:08:54;;;;;;;;;;;18.00;86.20;;;;;;5039193;28;19928;-73
2022/07/10 04:11:22;;;;;;;;;;;17.90;86.00;;;;;;5056293;28;19929;-74
2022/07/10 04:13:49;;;;;;;;;;;17.90;86.10;;;;;;5054325;28;20507;-73
2022/07/10 04:16:18;;;;;;;;;;;17.90;86.60;;;;;;5056040;28;19932;-74
2022/07/10 04:18:46;;;;;;;;;;;17.90;86.10;;;;;;5052662;28;19931;-75
2022/07/10 04:21:13;;;;;;;;;;;17.80;86.00;;;;;;5047341;28;19928;-77
2022/07/10 04:23:40;;;;;;;;;;;17.80;86.10;;;;;;5031952;28;19924;-75
2022/07/10 04:26:06;;;;;;;;;;;17.80;86.20;;;;;;5054252;28;19952;-76
2022/07/10 04:28:35;;;;;;;;;;;17.80;86.10;;;;;;5059229;28;19999;-77
2022/07/10 04:31:01;;;;;;;;;;;17.80;86.10;;;;;;5056565;28;19925;-76
2022/07/10 04:33:28;;;;;;;;;;;17.80;86.20;;;;;;5042789;28;19924;-77
2022/07/10 04:35:55;;;;;;;;;;;17.70;86.10;;;;;;5053487;28;19924;-79
2022/07/10 04:38:22;;;;;;;;;;;17.70;86.20;;;;;;5043266;28;21043;-75
2022/07/10 04:40:49;;;;;;;;;;;17.70;86.30;;;;;;5053123;28;19943;-78
2022/07/10 04:43:16;;;;;;;;;;;17.70;86.10;;;;;;5038722;28;19924;-75
2022/07/10 04:45:45;;;;;;;;;;;17.60;86.20;;;;;;5054454;28;19975;-79
2022/07/10 04:48:11;;;;;;;;;;;17.60;86.10;;;;;;5049172;28;19968;-79
2022/07/10 04:50:38;;;;;;;;;;;17.60;86.10;;;;;;5051040;28;19940;-76
2022/07/10 04:53:05;;;;;;;;;;;17.60;86.10;;;;;;5057084;28;19963;-76
2022/07/10 04:55:32;;;;;;;;;;;17.60;85.90;;;;;;5055259;28;20404;-76
2022/07/10 04:57:59;;;;;;;;;;;17.60;85.90;;;;;;5052149;28;19994;-76
2022/07/10 05:00:26;;;;;;;;;;;17.60;85.90;;;;;;5054146;28;19925;-79
2022/07/10 05:02:54;;;;;;;;;;;17.60;85.90;;;;;;5050809;28;19960;-76
2022/07/10 05:05:21;;;;;;;;;;;17.50;85.60;;;;;;5060518;28;19939;-78
2022/07/10 05:07:48;;;;;;;;;;;17.50;85.90;;;;;;5040942;28;19928;-76
2022/07/10 05:10:15;;;;;;;;;;;17.40;85.90;;;;;;5059684;28;19924;-76
2022/07/10 05:12:42;;;;;;;;;;;17.30;86.00;;;;;;5050695;28;20379;-75
2022/07/10 05:15:10;;;;;;;;;;;17.30;86.20;;;;;;5054754;28;19933;-75
2022/07/10 05:17:36;;;;;;;;;;;17.30;86.60;;;;;;5046690;28;19936;-76
2022/07/10 05:20:05;;;;;;;;;;;17.20;86.90;;;;;;5045209;28;19932;-76
2022/07/10 05:22:32;;;;;;;;;;;17.20;87.10;;;;;;5042309;28;19929;-76
2022/07/10 05:24:59;;;;;;;;;;;17.20;87.40;;;;;;5051451;28;19939;-75
2022/07/10 05:27:26;;;;;;;;;;;17.20;87.40;;;;;;5024339;28;21149;-76
2022/07/10 05:29:53;;;;;;;;;;;17.20;87.60;;;;;;5044973;28;19933;-76
2022/07/10 05:32:21;;;;;;;;;;;17.20;87.80;;;;;;5050858;28;19933;-79
2022/07/10 05:34:48;;;;;;;;;;;17.20;88.10;;;;;;5055338;28;19956;-76
2022/07/10 05:37:16;;;;;;;;;;;17.20;88.10;;;;;;5062746;28;19924;-76
2022/07/10 05:39:43;;;;;;;;;;;17.10;88.30;;;;;;5058252;28;19924;-79
2022/07/10 05:42:10;;;;;;;;;;;17.10;88.30;;;;;;5059999;28;19960;-75
2022/07/10 05:44:37;;;;;;;;;;;17.10;88.40;;;;;;5052617;28;19976;-77
2022/07/10 05:47:04;;;;;;;;;;;17.10;88.60;;;;;;5049860;28;21051;-78
2022/07/10 05:49:32;;;;;;;;;;;17.10;88.90;;;;;;5048434;28;19932;-76
2022/07/10 05:51:59;;;;;;;;;;;17.10;88.90;;;;;;5053029;28;19929;-76
2022/07/10 05:54:27;;;;;;;;;;;17.20;88.90;;;;;;5046800;28;19940;-75
2022/07/10 05:56:54;;;;;;;;;;;17.20;88.70;;;;;;5058543;28;20019;-75
2022/07/10 05:59:21;;;;;;;;;;;17.20;88.40;;;;;;5060387;28;19933;-76
2022/07/10 06:01:48;;;;;;;;;;;17.20;88.50;;;;;;5059186;28;20019;-76
2022/07/10 06:04:15;;;;;;;;;;;17.20;88.50;;;;;;5051651;28;19978;-76
2022/07/10 06:06:42;;;;;;;;;;;17.20;88.60;;;;;;5040062;28;20402;-77
2022/07/10 06:09:09;;;;;;;;;;;17.20;88.50;;;;;;5053597;28;19968;-79
2022/07/10 06:11:37;;;;;;;;;;;17.20;88.60;;;;;;5054452;28;19934;-75
2022/07/10 06:14:04;;;;;;;;;;;17.20;88.50;;;;;;5055584;28;19924;-76
2022/07/10 06:16:31;;;;;;;;;;;17.20;88.50;;;;;;5058886;28;19978;-78
2022/07/10 06:18:58;;;;;;;;;;;17.20;88.70;;;;;;5041217;28;20501;-76
2022/07/10 06:21:25;;;;;;;;;;;17.20;88.70;;;;;;5051607;28;19928;-76
2022/07/10 06:23:51;;;;;;;;;;;17.20;88.60;;;;;;5054416;28;19925;-75
2022/07/10 06:26:18;;;;;;;;;;;17.20;88.50;;;;;;5055689;28;20066;-75
2022/07/10 06:28:46;;;;;;;;;;;17.20;88.90;;;;;;5060829;28;19931;-75
2022/07/10 06:31:13;;;;;;;;;;;17.20;89.10;;;;;;5042851;28;19932;-77
2022/07/10 06:33:41;;;;;;;;;;;17.20;89.50;;;;;;5056708;28;19925;-75
2022/07/10 06:36:08;;;;;;;;;;;17.20;89.60;;;;;;5054279;28;19933;-78
2022/07/10 06:38:34;;;;;;;;;;;17.20;89.60;;;;;;5058977;28;20020;-76
2022/07/10 06:41:01;;;;;;;;;;;17.20;89.90;;;;;;5038597;28;20650;-76
2022/07/10 06:43:28;;;;;;;;;;;17.20;90.00;;;;;;5050591;28;20357;-76
2022/07/10 06:45:57;;;;;;;;;;;17.20;89.80;;;;;;5054154;28;19971;-78
2022/07/10 06:48:24;;;;;;;;;;;17.20;90.10;;;;;;5056414;28;19978;-76
2022/07/10 06:50:50;;;;;;;;;;;17.20;90.30;;;;;;5057818;28;19990;-76
2022/07/10 06:53:17;;;;;;;;;;;17.30;90.60;;;;;;5041550;28;19933;-75
2022/07/10 06:55:44;;;;;;;;;;;17.30;90.40;;;;;;5036677;28;19924;-76
2022/07/10 06:58:11;;;;;;;;;;;17.30;90.40;;;;;;5055191;28;19932;-76
2022/07/10 07:00:38;;;;;;;;;;;17.30;90.30;;;;;;5042200;28;19928;-79
2022/07/10 07:03:06;;;;;;;;;;;17.30;90.30;;;;;;5054164;28;19925;-77
2022/07/10 07:05:33;;;;;;;;;;;17.40;90.30;;;;;;5038762;28;20298;-75
2022/07/10 07:08:00;;;;;;;;;;;17.40;90.20;;;;;;5056767;28;19935;-76
2022/07/10 07:10:27;;;;;;;;;;;17.40;90.20;;;;;;5054098;28;20049;-77
2022/07/10 07:12:54;;;;;;;;;;;17.40;90.10;;;;;;5057145;28;19924;-75
2022/07/10 07:15:23;;;;;;;;;;;17.40;90.10;;;;;;5057065;28;20345;-76
2022/07/10 07:18:08;;;;;;;;;;;17.40;90.00;;;;;;5055159;28;19931;-76
2022/07/10 07:23:20;;;;;;;;;;;17.40;90.00;;;;;;5054527;28;20434;-78
2022/07/10 07:25:47;;;;;;;;;;;17.40;90.00;;;;;;5049952;28;19932;-77
2022/07/10 07:28:17;;;;;;;;;;;17.40;89.70;;;;;;5056598;28;19928;-75
2022/07/10 07:30:44;;;;;;;;;;;17.40;89.70;;;;;;5055500;28;19978;-75
2022/07/10 07:33:11;;;;;;;;;;;17.40;89.70;;;;;;5057380;28;20394;-76
2022/07/10 07:35:39;;;;;;;;;;;17.40;89.80;;;;;;5039689;28;19947;-76
2022/07/10 07:38:06;;;;;;;;;;;17.50;89.50;;;;;;5036394;28;19979;-76
2022/07/10 07:40:37;;;;;;;;;;;17.40;89.30;;;;;;5047133;28;19936;-78
2022/07/10 07:43:04;;;;;;;;;;;17.50;89.40;;;;;;5037148;28;19955;-75
2022/07/10 07:45:31;;;;;;;;;;;17.40;89.40;;;;;;5060217;28;20287;-76
2022/07/10 07:47:59;;;;;;;;;;;17.50;89.40;;;;;;5062563;28;20023;-76
2022/07/10 07:50:29;;;;;;;;;;;17.40;89.30;;;;;;5062731;28;20391;-76
2022/07/10 07:52:58;;;;;;;;;;;17.50;89.60;;;;;;5061453;28;19974;-77
2022/07/10 07:55:26;;;;;;;;;;;17.50;89.40;;;;;;5063784;28;19924;-76
2022/07/10 07:57:53;;;;;;;;;;;17.50;89.40;;;;;;5062118;28;19939;-76
2022/07/10 08:00:22;;;;;;;;;;;17.50;89.30;;;;;;5060335;28;19936;-76
2022/07/10 08:02:49;;;;;;;;;;;17.50;89.10;;;;;;5062000;28;20273;-76
2022/07/10 08:05:17;;;;;;;;;;;17.50;88.80;;;;;;5055121;28;19929;-78
2022/07/10 08:07:44;;;;;;;;;;;17.50;89.00;;;;;;5038081;28;20410;-73
2022/07/10 08:10:13;;;;;;;;;;;17.60;89.20;;;;;;5058567;28;19928;-76
2022/07/10 08:12:43;;;;;;;;;;;17.50;89.00;;;;;;5048174;28;19932;-75
2022/07/10 08:15:10;;;;;;;;;;;17.60;89.00;;;;;;5050866;28;19925;-74
2022/07/10 08:17:38;;;;;;;;;;;17.50;88.80;;;;;;5057532;28;19947;-73
2022/07/10 08:20:05;;;;;;;;;;;17.60;88.70;;;;;;5055873;28;20090;-71
2022/07/10 08:22:32;;;;;;;;;;;17.60;88.90;;;;;;5051032;28;19998;-73
2022/07/10 08:24:59;;;;;;;;;;;17.60;88.70;;;;;;5034199;28;19963;-72
2022/07/10 08:27:27;;;;;;;;;;;17.60;88.40;;;;;;5060459;28;19928;-72
2022/07/10 08:29:54;;;;;;;;;;;17.50;88.20;;;;;;5056016;28;19933;-76
2022/07/10 08:32:21;;;;;;;;;;;17.50;88.10;;;;;;5059164;28;19975;-74
2022/07/10 08:34:48;;;;;;;;;;;17.60;88.10;;;;;;5059389;28;19932;-74
2022/07/10 08:37:15;;;;;;;;;;;17.50;87.60;;;;;;5060146;28;19978;-74
2022/07/10 08:39:42;;;;;;;;;;;17.60;87.50;;;;;;5050035;28;20364;-76
2022/07/10 08:42:11;;;;;;;;;;;17.60;87.60;;;;;;5057369;28;20411;-75
2022/07/10 08:44:39;;;;;;;;;;;17.60;87.50;;;;;;5063303;28;20341;-74
2022/07/10 08:47:06;;;;;;;;;;;17.50;87.50;;;;;;5058375;28;19925;-74
2022/07/10 08:49:35;;;;;;;;;;;17.60;87.40;;;;;;5060881;28;19928;-76
2022/07/10 08:52:04;;;;;;;;;;;17.60;87.30;;;;;;5035208;28;19931;-75
2022/07/10 08:54:32;;;;;;;;;;;17.50;87.30;;;;;;5063543;28;20386;-75
2022/07/10 08:56:59;;;;;;;;;;;17.60;87.40;;;;;;5056661;28;19932;-73
2022/07/10 08:59:27;;;;;;;;;;;17.60;87.50;;;;;;5062038;28;19931;-73
2022/07/10 09:01:55;;;;;;;;;;;17.60;87.60;;;;;;5052795;28;19932;-74
2022/07/10 09:04:23;;;;;;;;;;;17.60;87.50;;;;;;5041816;28;20017;-75
2022/07/10 09:06:51;;;;;;;;;;;17.50;87.40;;;;;;5043349;28;19932;-74
2022/07/10 09:09:18;;;;;;;;;;;17.60;87.70;;;;;;5065042;28;19924;-75
2022/07/10 09:11:44;;;;;;;;;;;17.60;87.60;;;;;;5061683;28;19960;-74
2022/07/10 09:14:12;;;;;;;;;;;17.60;87.70;;;;;;5062057;28;20442;-76
2022/07/10 09:16:40;;;;;;;;;;;17.60;87.60;;;;;;5064725;28;20530;-75
2022/07/10 09:19:19;;;;;;;;;;;17.60;87.50;;;;;;5063796;28;19932;-75
2022/07/10 09:21:46;;;;;;;;;;;17.60;87.00;;;;;;5056053;28;19925;-71
2022/07/10 09:24:13;;;;;;;;;;;17.60;86.70;;;;;;5059592;28;19932;-72
2022/07/10 09:26:42;;;;;;;;;;;17.60;86.20;;;;;;5064085;28;19925;-73
2022/07/10 09:29:09;;;;;;;;;;;17.60;86.30;;;;;;5060121;28;19939;-72
2022/07/10 09:31:52;;;;;;;;;;;17.50;85.40;;;;;;5057846;28;20011;-72
2022/07/10 09:34:35;;;;;;;;;;;17.60;85.10;;;;;;5058969;28;19928;-72
2022/07/10 09:37:17;;;;;;;;;;;17.60;85.10;;;;;;5061995;28;20363;-73
2022/07/10 09:39:51;;;;;;;;;;;17.50;85.30;;;;;;5060480;28;19928;-72
2022/07/10 09:42:25;;;;;;;;;;;17.50;85.80;;;;;;5057171;28;19924;-72
2022/07/10 09:44:53;;;;;;;;;;;17.50;86.00;;;;;;5058549;28;19963;-73
2022/07/10 09:47:22;;;;;;;;;;;17.50;86.10;;;;;;5060965;28;19982;-72
2022/07/10 09:49:50;;;;;;;;;;;17.50;86.00;;;;;;5060638;28;19936;-73
2022/07/10 09:52:19;;;;;;;;;;;17.60;86.10;;;;;;5060005;28;19932;-73
2022/07/10 09:54:46;;;;;;;;;;;17.60;86.00;;;;;;5059739;28;19954;-72
2022/07/10 09:57:14;;;;;;;;;;;17.50;86.00;;;;;;5062641;28;19931;-72
2022/07/10 09:59:41;;;;;;;;;;;17.60;85.90;;;;;;5062643;28;20638;-73
2022/07/10 10:02:10;;;;;;;;;;;17.60;86.00;;;;;;5066105;28;19933;-71
2022/07/10 10:04:38;;;;;;;;;;;17.60;86.00;;;;;;5044263;28;19924;-72
2022/07/10 10:07:12;;;;;;;;;;;17.60;85.90;;;;;;5066046;28;20421;-71
2022/07/10 10:09:41;;;;;;;;;;;17.60;85.00;;;;;;5067781;28;20027;-71
2022/07/10 10:12:10;;;;;;;;;;;17.60;84.50;;;;;;5061988;28;19963;-73
2022/07/10 10:14:39;;;;;;;;;;;17.60;84.40;;;;;;5059426;28;19936;-72
2022/07/10 10:17:06;;;;;;;;;;;17.60;84.60;;;;;;5060300;28;19978;-72
2022/07/10 10:22:22;;;;;;;;;;;17.60;84.50;;;;;;5057391;28;20567;-72
2022/07/10 10:24:49;;;;;;;;;;;17.50;84.20;;;;;;5054196;28;19967;-72
2022/07/10 10:27:16;;;;;;;;;;;17.50;83.20;;;;;;5058462;28;19959;-72
2022/07/10 10:29:43;;;;;;;;;;;17.50;83.00;;;;;;5054149;28;19932;-72
2022/07/10 10:32:10;;;;;;;;;;;17.50;82.80;;;;;;5054643;28;20027;-71
2022/07/10 10:34:42;;;;;;;;;;;17.50;82.60;;;;;;5055949;28;19990;-72
2022/07/10 10:37:29;;;;;;;;;;;17.50;82.50;;;;;;5061444;28;19925;-72
2022/07/10 10:39:56;;;;;;;;;;;17.50;82.50;;;;;;5053533;28;19932;-72
2022/07/10 10:42:32;;;;;;;;;;;17.50;82.00;;;;;;5062987;28;19928;-72
2022/07/10 10:45:14;;;;;;;;;;;17.50;82.50;;;;;;5061548;28;20398;-72
2022/07/10 10:47:56;;;;;;;;;;;17.50;82.40;;;;;;5058283;28;19924;-72
2022/07/10 10:50:36;;;;;;;;;;;17.50;82.70;;;;;;5064766;28;20332;-70
2022/07/10 10:53:04;;;;;;;;;;;17.60;83.00;;;;;;5061941;28;20283;-72
2022/07/10 10:55:31;;;;;;;;;;;17.60;83.10;;;;;;5063366;28;19960;-72
2022/07/10 10:58:12;;;;;;;;;;;17.60;83.40;;;;;;5045619;28;20455;-71
2022/07/10 11:00:41;;;;;;;;;;;17.60;83.40;;;;;;5062490;28;19925;-72
2022/07/10 11:03:15;;;;;;;;;;;17.60;83.60;;;;;;5067927;28;20006;-73
2022/07/10 11:05:45;;;;;;;;;;;17.60;83.20;;;;;;5060336;28;19964;-72
2022/07/10 11:08:13;;;;;;;;;;;17.60;82.70;;;;;;5064545;28;19936;-72
2022/07/10 11:10:41;;;;;;;;;;;17.60;82.60;;;;;;5060903;28;20348;-71
2022/07/10 11:13:09;;;;;;;;;;;17.60;82.50;;;;;;5061033;28;20361;-72
2022/07/10 11:15:37;;;;;;;;;;;17.60;82.30;;;;;;5061370;28;19990;-72
2022/07/10 11:18:07;;;;;;;;;;;17.60;82.40;;;;;;5063360;28;19940;-72
2022/07/10 11:20:35;;;;;;;;;;;17.60;82.60;;;;;;5060030;28;19990;-72
2022/07/10 11:23:07;;;;;;;;;;;17.60;82.20;;;;;;5063278;28;20120;-72
2022/07/10 11:25:44;;;;;;;;;;;17.60;81.60;;;;;;5063492;28;19995;-72
2022/07/10 11:28:12;;;;;;;;;;;17.60;81.70;;;;;;5065178;28;19924;-72
2022/07/10 11:30:46;;;;;;;;;;;17.70;82.00;;;;;;5059387;28;19929;-72
2022/07/10 11:33:12;;;;;;;;;;;17.70;81.80;;;;;;5060740;28;19928;-72
2022/07/10 11:35:40;;;;;;;;;;;17.70;81.90;;;;;;5065585;28;20377;-72
2022/07/10 11:38:06;;;;;;;;;;;17.70;81.90;;;;;;5066684;28;20076;-71
2022/07/10 11:40:36;;;;;;;;;;;17.70;82.20;;;;;;5066843;28;20283;-71
2022/07/10 11:43:06;;;;;;;;;;;17.70;82.10;;;;;;5061211;28;19939;-72
2022/07/10 11:45:36;;;;;;;;;;;17.70;82.40;;;;;;5065428;28;19959;-72
2022/07/10 11:48:04;;;;;;;;;;;17.70;82.50;;;;;;5065098;28;20456;-72
2022/07/10 11:50:35;;;;;;;;;;;17.80;82.50;;;;;;5056328;28;19929;-72
2022/07/10 11:53:03;;;;;;;;;;;17.80;82.40;;;;;;5065904;28;19974;-72
2022/07/10 11:55:31;;;;;;;;;;;17.80;82.20;;;;;;5064181;28;19925;-72
2022/07/10 11:57:58;;;;;;;;;;;17.80;82.30;;;;;;5058178;28;19926;-72
2022/07/10 12:00:29;;;;;;;;;;;17.80;82.40;;;;;;5051678;28;19933;-72
2022/07/10 12:02:57;;;;;;;;;;;17.80;82.10;;;;;;5064434;28;20023;-72
2022/07/10 12:05:37;;;;;;;;;;;17.90;82.00;;;;;;5063032;28;19968;-73
2022/07/10 12:08:06;;;;;;;;;;;17.90;82.40;;;;;;5069493;28;21360;-74
2022/07/10 12:10:34;;;;;;;;;;;17.90;82.50;;;;;;5041752;28;20448;-73
2022/07/10 12:13:05;;;;;;;;;;;17.90;82.20;;;;;;5063711;28;20392;-74
2022/07/10 12:15:33;;;;;;;;;;;17.90;82.00;;;;;;5047474;28;19964;-74
2022/07/10 12:18:00;;;;;;;;;;;18.00;82.30;;;;;;5055127;28;20023;-75
2022/07/10 12:20:27;;;;;;;;;;;18.00;82.30;;;;;;5061483;28;19990;-74
2022/07/10 12:22:55;;;;;;;;;;;18.00;82.20;;;;;;5064411;28;19931;-74
2022/07/10 12:25:22;;;;;;;;;;;18.10;82.50;;;;;;5045451;28;19962;-71
2022/07/10 12:27:49;;;;;;;;;;;18.10;82.30;;;;;;5060405;28;20385;-72
2022/07/10 12:30:16;;;;;;;;;;;18.10;82.30;;;;;;5057533;28;19928;-72
2022/07/10 12:32:44;;;;;;;;;;;18.10;82.10;;;;;;5042669;28;19928;-71
2022/07/10 12:35:14;;;;;;;;;;;18.10;82.10;;;;;;5038891;28;20373;-72
2022/07/10 12:37:48;;;;;;;;;;;18.20;82.00;;;;;;5059547;28;19925;-71
2022/07/10 12:40:30;;;;;;;;;;;18.20;82.00;;;;;;5055570;28;19956;-71
2022/07/10 12:43:02;;;;;;;;;;;18.30;82.30;;;;;;5057512;28;19928;-71
2022/07/10 12:45:29;;;;;;;;;;;18.30;81.90;;;;;;5062607;28;19925;-72
2022/07/10 12:47:57;;;;;;;;;;;18.30;81.50;;;;;;5061405;28;19926;-72
2022/07/10 12:50:25;;;;;;;;;;;18.30;82.10;;;;;;5050045;28;19925;-71
2022/07/10 12:53:06;;;;;;;;;;;18.30;81.40;;;;;;5058895;28;19956;-70
2022/07/10 12:55:37;;;;;;;;;;;18.40;81.80;;;;;;5054703;28;19932;-71
2022/07/10 12:58:08;;;;;;;;;;;18.40;81.40;;;;;;5051760;28;19936;-72
2022/07/10 13:00:36;;;;;;;;;;;18.50;81.40;;;;;;5055489;28;19924;-75
2022/07/10 13:03:05;;;;;;;;;;;18.50;81.10;;;;;;5052083;28;20600;-73
2022/07/10 13:05:33;;;;;;;;;;;18.50;81.10;;;;;;5039330;28;19935;-76
2022/07/10 13:08:08;;;;;;;;;;;18.60;81.50;;;;;;5055900;28;19935;-74
2022/07/10 13:10:36;;;;;;;;;;;18.60;81.30;;;;;;5053954;28;19942;-77
2022/07/10 13:13:02;;;;;;;;;;;18.60;81.00;;;;;;5060998;28;19933;-73
2022/07/10 13:15:30;;;;;;;;;;;18.60;81.10;;;;;;5038224;28;19955;-74
2022/07/10 13:17:56;;;;;;;;;;;18.60;81.50;;;;;;5041911;28;20035;-74
2022/07/10 13:20:25;;;;;;;;;;;18.70;81.00;;;;;;5053062;28;19986;-74
2022/07/10 13:22:52;;;;;;;;;;;18.70;80.50;;;;;;5052613;28;19928;-76
2022/07/10 13:25:18;;;;;;;;;;;18.70;80.70;;;;;;5054892;28;19925;-74
2022/07/10 13:27:46;;;;;;;;;;;18.80;80.90;;;;;;5040452;28;19924;-75
2022/07/10 13:30:13;;;;;;;;;;;18.80;80.60;;;;;;5055937;28;20007;-74
2022/07/10 13:32:40;;;;;;;;;;;18.80;80.80;;;;;;5056955;28;19928;-75
2022/07/10 13:35:07;;;;;;;;;;;18.80;80.60;;;;;;5051811;28;19925;-74
2022/07/10 13:37:35;;;;;;;;;;;18.80;80.80;;;;;;5054267;28;19928;-72
2022/07/10 13:40:02;;;;;;;;;;;18.90;80.90;;;;;;5054754;28;19924;-72
2022/07/10 13:42:29;;;;;;;;;;;18.90;80.70;;;;;;5043698;28;19932;-72
2022/07/10 13:44:56;;;;;;;;;;;18.90;80.40;;;;;;5052290;28;19929;-71
2022/07/10 13:47:23;;;;;;;;;;;19.00;81.40;;;;;;5049554;28;19929;-71
2022/07/10 13:49:50;;;;;;;;;;;19.00;80.50;;;;;;5054657;28;19924;-72
2022/07/10 13:52:20;;;;;;;;;;;19.00;80.20;;;;;;5096094;22;20046;31
2022/07/10 13:54:49;;;;;;;;;;;19.10;80.20;;;;;;5208447;22;19956;-73
2022/07/10 13:59:45;;;;;;;;;;;19.10;80.00;;;;;;5058274;28;20222;-72
2022/07/10 14:02:15;;;;;;;;;;;19.20;80.20;;;;;;5067127;28;19937;-72
2022/07/10 14:04:45;;;;;;;;;;;19.20;80.60;;;;;;5049856;28;19924;-71
2022/07/10 14:07:11;;;;;;;;;;;19.20;80.10;;;;;;5064246;28;19924;-72
2022/07/10 14:09:38;;;;;;;;;;;19.30;80.40;;;;;;5062625;28;19935;-75
2022/07/10 14:12:07;;;;;;;;;;;19.30;80.00;;;;;;5058012;28;20317;-72
2022/07/10 14:14:34;;;;;;;;;;;19.40;80.10;;;;;;5042005;28;19931;-73
2022/07/10 14:17:01;;;;;;;;;;;19.40;79.10;;;;;;5062964;28;20573;-74
2022/07/10 14:19:28;;;;;;;;;;;19.40;79.40;;;;;;5063434;28;19978;-72
2022/07/10 14:21:54;;;;;;;;;;;19.50;79.30;;;;;;5059424;28;19999;-72
2022/07/10 14:24:21;;;;;;;;;;;19.50;79.30;;;;;;5057829;28;20031;-72
2022/07/10 14:26:48;;;;;;;;;;;19.50;79.50;;;;;;5058678;28;20290;-72
2022/07/10 14:29:16;;;;;;;;;;;19.60;79.50;;;;;;5059368;28;19925;-72
2022/07/10 14:31:45;;;;;;;;;;;19.60;79.50;;;;;;5044286;28;20406;-72
2022/07/10 14:34:19;;;;;;;;;;;19.70;79.60;;;;;;5056520;28;20406;-72